sensor_id;sensor_type;location;lat;lon;timestamp;pressure;altitude;pressure_sealevel;temperature;humidity
8049;BME280;20935;42.660;23.342;2023-03-23T00:01:13;94732.38;;;6.19;100.00
8049;BME280;20935;42.660;23.342;2023-03-23T00:04:03;94729.91;;;6.00;100.00
8049;BME280;20935;42.660;23.342;2023-03-23T00:06:49;94727.97;;;5.97;100.00
8049;BME280;20935;42.660;23.342;2023-03-23T00:09:36;94724.34;;;5.82;100.00
8049;BME280;20935;42.660;23.342;2023-03-23T00:12:26;94725.81;;;5.76;100.00
8049;BME280;20935;42.660;23.342;2023-03-23T00:15:17;94730.91;;;5.58;100.00
8049;BME280;20935;42.660;23.342;2023-03-23T00:18:03;94729.00;;;5.59;100.00
8049;BME280;20935;42.660;23.342;2023-03-23T00:20:50;94728.47;;;5.46;100.00
8049;BME280;20935;42.660;23.342;2023-03-23T00:23:35;94729.28;;;5.50;100.00
8049;BME280;20935;42.660;23.342;2023-03-23T00:26:23;94732.28;;;5.45;100.00
8049;BME280;20935;42.660;23.342;2023-03-23T00:29:14;94733.00;;;5.46;100.00
8049;BME280;20935;42.660;23.342;2023-03-23T00:32:00;94737.22;;;5.47;100.00
8049;BME280;20935;42.660;23.342;2023-03-23T00:34:45;94739.56;;;5.52;100.00
8049;BME280;20935;42.660;23.342;2023-03-23T00:37:31;94746.41;;;5.53;100.00
8049;BME280;20935;42.660;23.342;2023-03-23T00:40:19;94745.03;;;5.66;100.00
8049;BME280;20935;42.660;23.342;2023-03-23T00:43:06;94743.56;;;5.68;100.00
8049;BME280;20935;42.660;23.342;2023-03-23T00:45:52;94754.22;;;5.72;100.00
8049;BME280;20935;42.660;23.342;2023-03-23T00:48:37;94752.75;;;5.45;100.00
8049;BME280;20935;42.660;23.342;2023-03-23T00:51:29;94753.56;;;5.49;100.00
8049;BME280;20935;42.660;23.342;2023-03-23T00:54:14;94756.19;;;5.45;100.00
8049;BME280;20935;42.660;23.342;2023-03-23T00:57:01;94752.31;;;5.43;100.00
8049;BME280;20935;42.660;23.342;2023-03-23T00:59:47;94755.84;;;5.50;100.00
8049;BME280;20935;42.660;23.342;2023-03-23T01:02:32;94756.25;;;5.52;100.00
8049;BME280;20935;42.660;23.342;2023-03-23T01:05:20;94761.09;;;5.47;100.00
8049;BME280;20935;42.660;23.342;2023-03-23T01:08:06;94762.34;;;5.53;100.00
8049;BME280;20935;42.660;23.342;2023-03-23T01:11:02;94752.59;;;5.64;100.00
8049;BME280;20935;42.660;23.342;2023-03-23T01:13:47;94768.03;;;5.85;100.00
8049;BME280;20935;42.660;23.342;2023-03-23T01:16:35;94759.22;;;5.77;100.00
8049;BME280;20935;42.660;23.342;2023-03-23T01:19:20;94757.47;;;5.88;100.00
8049;BME280;20935;42.660;23.342;2023-03-23T01:22:06;94753.22;;;5.84;100.00
8049;BME280;20935;42.660;23.342;2023-03-23T01:24:54;94750.88;;;5.79;100.00
8049;BME280;20935;42.660;23.342;2023-03-23T01:27:40;94749.31;;;5.74;100.00
8049;BME280;20935;42.660;23.342;2023-03-23T01:30:26;94744.84;;;5.82;100.00
8049;BME280;20935;42.660;23.342;2023-03-23T01:33:13;94752.53;;;5.87;100.00
8049;BME280;20935;42.660;23.342;2023-03-23T01:36:03;94739.28;;;5.90;100.00
8049;BME280;20935;42.660;23.342;2023-03-23T01:38:49;94740.16;;;6.01;100.00
8049;BME280;20935;42.660;23.342;2023-03-23T01:41:35;94736.50;;;5.83;100.00
8049;BME280;20935;42.660;23.342;2023-03-23T01:47:44;94733.94;;;6.24;100.00
8049;BME280;20935;42.660;23.342;2023-03-23T01:50:36;94734.00;;;6.31;100.00
8049;BME280;20935;42.660;23.342;2023-03-23T01:53:26;94731.22;;;6.17;100.00
8049;BME280;20935;42.660;23.342;2023-03-23T01:56:14;94727.09;;;5.89;100.00
8049;BME280;20935;42.660;23.342;2023-03-23T01:59:03;94719.59;;;6.35;100.00
8049;BME280;20935;42.660;23.342;2023-03-23T02:01:49;94722.41;;;6.53;100.00
8049;BME280;20935;42.660;23.342;2023-03-23T02:04:36;94723.31;;;6.24;100.00
8049;BME280;20935;42.660;23.342;2023-03-23T02:07:24;94724.19;;;6.01;100.00
8049;BME280;20935;42.660;23.342;2023-03-23T02:10:10;94729.84;;;6.33;100.00
8049;BME280;20935;42.660;23.342;2023-03-23T02:12:55;94728.41;;;6.43;100.00
8049;BME280;20935;42.660;23.342;2023-03-23T02:15:47;94727.50;;;6.25;100.00
8049;BME280;20935;42.660;23.342;2023-03-23T02:18:51;94727.28;;;6.03;100.00
8049;BME280;20935;42.660;23.342;2023-03-23T02:22:01;94722.97;;;5.92;100.00
8049;BME280;20935;42.660;23.342;2023-03-23T02:24:56;94722.66;;;5.97;100.00
8049;BME280;20935;42.660;23.342;2023-03-23T02:28:03;94721.88;;;5.96;100.00
8049;BME280;20935;42.660;23.342;2023-03-23T02:31:03;94719.41;;;5.81;100.00
8049;BME280;20935;42.660;23.342;2023-03-23T02:33:56;94717.91;;;5.83;100.00
8049;BME280;20935;42.660;23.342;2023-03-23T02:36:48;94724.38;;;6.19;100.00
8049;BME280;20935;42.660;23.342;2023-03-23T02:39:38;94727.94;;;6.34;100.00
8049;BME280;20935;42.660;23.342;2023-03-23T02:42:28;94727.94;;;6.34;100.00
8049;BME280;20935;42.660;23.342;2023-03-23T02:45:17;94730.66;;;6.00;100.00
8049;BME280;20935;42.660;23.342;2023-03-23T02:48:05;94730.41;;;6.12;100.00
8049;BME280;20935;42.660;23.342;2023-03-23T02:50:54;94737.25;;;5.50;100.00
8049;BME280;20935;42.660;23.342;2023-03-23T02:53:41;94745.16;;;5.17;100.00
8049;BME280;20935;42.660;23.342;2023-03-23T02:56:29;94743.97;;;5.41;100.00
8049;BME280;20935;42.660;23.342;2023-03-23T02:59:14;94750.97;;;5.26;100.00
8049;BME280;20935;42.660;23.342;2023-03-23T03:02:04;94747.78;;;5.43;100.00
8049;BME280;20935;42.660;23.342;2023-03-23T03:04:54;94762.03;;;5.61;100.00
8049;BME280;20935;42.660;23.342;2023-03-23T03:08:01;94760.56;;;5.64;100.00
8049;BME280;20935;42.660;23.342;2023-03-23T03:10:54;94773.41;;;5.58;100.00
8049;BME280;20935;42.660;23.342;2023-03-23T03:13:47;94775.81;;;5.71;100.00
8049;BME280;20935;42.660;23.342;2023-03-23T03:16:38;94781.53;;;5.69;100.00
8049;BME280;20935;42.660;23.342;2023-03-23T03:19:28;94779.09;;;5.87;100.00
8049;BME280;20935;42.660;23.342;2023-03-23T03:22:16;94780.91;;;5.83;100.00
8049;BME280;20935;42.660;23.342;2023-03-23T03:25:05;94779.22;;;5.97;100.00
8049;BME280;20935;42.660;23.342;2023-03-23T03:27:53;94786.31;;;5.86;100.00
8049;BME280;20935;42.660;23.342;2023-03-23T03:30:41;94782.44;;;5.84;100.00
8049;BME280;20935;42.660;23.342;2023-03-23T03:33:29;94782.16;;;5.89;100.00
8049;BME280;20935;42.660;23.342;2023-03-23T03:36:20;94776.97;;;5.99;100.00
8049;BME280;20935;42.660;23.342;2023-03-23T03:39:09;94800.81;;;5.92;100.00
8049;BME280;20935;42.660;23.342;2023-03-23T03:41:56;94789.81;;;5.94;100.00
8049;BME280;20935;42.660;23.342;2023-03-23T03:44:41;94783.22;;;5.84;100.00
8049;BME280;20935;42.660;23.342;2023-03-23T03:47:27;94785.81;;;5.77;100.00
8049;BME280;20935;42.660;23.342;2023-03-23T03:50:12;94782.78;;;6.08;100.00
8049;BME280;20935;42.660;23.342;2023-03-23T03:52:57;94783.41;;;6.32;100.00
8049;BME280;20935;42.660;23.342;2023-03-23T03:55:43;94776.59;;;5.71;100.00
8049;BME280;20935;42.660;23.342;2023-03-23T03:58:34;94776.25;;;5.73;100.00
8049;BME280;20935;42.660;23.342;2023-03-23T04:01:22;94774.69;;;5.42;100.00
8049;BME280;20935;42.660;23.342;2023-03-23T04:04:08;94773.47;;;5.36;100.00
8049;BME280;20935;42.660;23.342;2023-03-23T04:06:53;94765.50;;;5.36;100.00
8049;BME280;20935;42.660;23.342;2023-03-23T04:09:39;94762.13;;;5.09;100.00
8049;BME280;20935;42.660;23.342;2023-03-23T04:12:24;94769.41;;;5.15;100.00
8049;BME280;20935;42.660;23.342;2023-03-23T04:15:13;94767.63;;;5.23;100.00
8049;BME280;20935;42.660;23.342;2023-03-23T04:17:59;94769.25;;;5.31;100.00
8049;BME280;20935;42.660;23.342;2023-03-23T04:20:46;94766.94;;;5.56;100.00
8049;BME280;20935;42.660;23.342;2023-03-23T04:23:32;94775.31;;;5.88;100.00
8049;BME280;20935;42.660;23.342;2023-03-23T04:26:19;94771.94;;;5.91;100.00
8049;BME280;20935;42.660;23.342;2023-03-23T04:29:05;94768.56;;;5.38;100.00
8049;BME280;20935;42.660;23.342;2023-03-23T04:31:52;94776.34;;;5.53;100.00
8049;BME280;20935;42.660;23.342;2023-03-23T04:34:39;94774.50;;;5.57;100.00
8049;BME280;20935;42.660;23.342;2023-03-23T04:37:25;94777.25;;;5.35;100.00
8049;BME280;20935;42.660;23.342;2023-03-23T04:40:18;94775.78;;;5.37;100.00
8049;BME280;20935;42.660;23.342;2023-03-23T04:43:04;94778.63;;;5.51;100.00
8049;BME280;20935;42.660;23.342;2023-03-23T04:45:52;94774.59;;;5.35;100.00
8049;BME280;20935;42.660;23.342;2023-03-23T04:48:44;94785.81;;;5.51;100.00
8049;BME280;20935;42.660;23.342;2023-03-23T04:51:29;94783.13;;;5.47;100.00
8049;BME280;20935;42.660;23.342;2023-03-23T04:54:15;94788.84;;;5.49;100.00
8049;BME280;20935;42.660;23.342;2023-03-23T04:57:00;94784.78;;;5.59;100.00
8049;BME280;20935;42.660;23.342;2023-03-23T04:59:46;94805.69;;;5.60;100.00
8049;BME280;20935;42.660;23.342;2023-03-23T05:02:32;94797.44;;;5.95;100.00
8049;BME280;20935;42.660;23.342;2023-03-23T05:05:20;94793.28;;;5.98;100.00
8049;BME280;20935;42.660;23.342;2023-03-23T05:08:06;94792.16;;;5.99;100.00
8049;BME280;20935;42.660;23.342;2023-03-23T05:10:51;94800.97;;;6.06;100.00
8049;BME280;20935;42.660;23.342;2023-03-23T05:13:37;94799.88;;;6.44;100.00
8049;BME280;20935;42.660;23.342;2023-03-23T05:16:23;94803.84;;;6.24;100.00
8049;BME280;20935;42.660;23.342;2023-03-23T05:19:09;94804.59;;;5.91;100.00
8049;BME280;20935;42.660;23.342;2023-03-23T05:21:58;94806.16;;;6.29;100.00
8049;BME280;20935;42.660;23.342;2023-03-23T05:24:46;94809.25;;;6.35;100.00
8049;BME280;20935;42.660;23.342;2023-03-23T05:27:32;94813.31;;;6.58;100.00
8049;BME280;20935;42.660;23.342;2023-03-23T05:30:17;94814.00;;;6.52;100.00
8049;BME280;20935;42.660;23.342;2023-03-23T05:33:02;94828.22;;;6.33;100.00
8049;BME280;20935;42.660;23.342;2023-03-23T05:35:48;94829.00;;;6.71;100.00
8049;BME280;20935;42.660;23.342;2023-03-23T05:38:35;94821.19;;;6.88;100.00
8049;BME280;20935;42.660;23.342;2023-03-23T05:41:23;94832.81;;;7.17;100.00
8049;BME280;20935;42.660;23.342;2023-03-23T05:44:12;94826.34;;;7.15;100.00
8049;BME280;20935;42.660;23.342;2023-03-23T05:46:58;94831.88;;;7.43;100.00
8049;BME280;20935;42.660;23.342;2023-03-23T05:49:44;94835.84;;;7.67;100.00
8049;BME280;20935;42.660;23.342;2023-03-23T05:52:30;94833.56;;;7.69;100.00
8049;BME280;20935;42.660;23.342;2023-03-23T05:55:17;94832.09;;;7.75;100.00
8049;BME280;20935;42.660;23.342;2023-03-23T05:58:03;94838.47;;;7.56;100.00
8049;BME280;20935;42.660;23.342;2023-03-23T06:00:49;94833.66;;;7.83;100.00
8049;BME280;20935;42.660;23.342;2023-03-23T06:03:35;94836.47;;;8.15;100.00
8049;BME280;20935;42.660;23.342;2023-03-23T06:06:20;94847.66;;;8.38;100.00
8049;BME280;20935;42.660;23.342;2023-03-23T06:09:06;94843.69;;;8.07;100.00
8049;BME280;20935;42.660;23.342;2023-03-23T06:11:53;94846.19;;;8.55;100.00
8049;BME280;20935;42.660;23.342;2023-03-23T06:14:39;94844.28;;;8.62;100.00
8049;BME280;20935;42.660;23.342;2023-03-23T06:17:24;94852.72;;;8.75;100.00
8049;BME280;20935;42.660;23.342;2023-03-23T06:20:11;94852.09;;;8.16;100.00
8049;BME280;20935;42.660;23.342;2023-03-23T06:22:57;94845.13;;;7.94;100.00
8049;BME280;20935;42.660;23.342;2023-03-23T06:25:42;94850.38;;;7.76;100.00
8049;BME280;20935;42.660;23.342;2023-03-23T06:28:29;94847.16;;;8.15;100.00
8049;BME280;20935;42.660;23.342;2023-03-23T06:31:14;94849.56;;;8.37;100.00
8049;BME280;20935;42.660;23.342;2023-03-23T06:34:01;94845.75;;;8.45;100.00
8049;BME280;20935;42.660;23.342;2023-03-23T06:36:47;94853.88;;;8.88;100.00
8049;BME280;20935;42.660;23.342;2023-03-23T06:39:32;94846.59;;;8.71;100.00
8049;BME280;20935;42.660;23.342;2023-03-23T06:42:18;94852.75;;;9.70;100.00
8049;BME280;20935;42.660;23.342;2023-03-23T06:45:06;94853.88;;;9.83;100.00
8049;BME280;20935;42.660;23.342;2023-03-23T06:47:52;94862.19;;;10.31;100.00
8049;BME280;20935;42.660;23.342;2023-03-23T06:50:38;94868.50;;;10.73;100.00
8049;BME280;20935;42.660;23.342;2023-03-23T06:53:24;94876.38;;;11.05;100.00
8049;BME280;20935;42.660;23.342;2023-03-23T06:56:10;94870.66;;;10.99;100.00
8049;BME280;20935;42.660;23.342;2023-03-23T06:58:57;94877.19;;;10.98;100.00
8049;BME280;20935;42.660;23.342;2023-03-23T07:01:44;94872.97;;;11.52;100.00
8049;BME280;20935;42.660;23.342;2023-03-23T07:04:30;94871.44;;;11.51;100.00
8049;BME280;20935;42.660;23.342;2023-03-23T07:07:16;94876.53;;;10.76;100.00
8049;BME280;20935;42.660;23.342;2023-03-23T07:10:06;94871.47;;;9.77;100.00
8049;BME280;20935;42.660;23.342;2023-03-23T07:12:52;94867.56;;;10.03;100.00
8049;BME280;20935;42.660;23.342;2023-03-23T07:15:39;94872.34;;;10.72;100.00
8049;BME280;20935;42.660;23.342;2023-03-23T07:18:26;94871.44;;;10.96;100.00
8049;BME280;20935;42.660;23.342;2023-03-23T07:21:12;94877.25;;;11.43;100.00
8049;BME280;20935;42.660;23.342;2023-03-23T07:23:58;94876.97;;;11.82;100.00
8049;BME280;20935;42.660;23.342;2023-03-23T07:26:44;94868.78;;;11.96;100.00
8049;BME280;20935;42.660;23.342;2023-03-23T07:29:29;94870.13;;;11.25;100.00
8049;BME280;20935;42.660;23.342;2023-03-23T07:32:19;94871.09;;;10.94;100.00
8049;BME280;20935;42.660;23.342;2023-03-23T07:35:07;94880.53;;;11.64;100.00
8049;BME280;20935;42.660;23.342;2023-03-23T07:37:53;94873.09;;;12.57;100.00
8049;BME280;20935;42.660;23.342;2023-03-23T07:40:39;94878.25;;;12.45;100.00
8049;BME280;20935;42.660;23.342;2023-03-23T07:43:25;94882.94;;;12.98;97.84
8049;BME280;20935;42.660;23.342;2023-03-23T07:46:11;94884.63;;;13.45;91.79
8049;BME280;20935;42.660;23.342;2023-03-23T07:48:57;94888.31;;;13.28;90.78
8049;BME280;20935;42.660;23.342;2023-03-23T07:51:45;94884.19;;;12.59;96.02
8049;BME280;20935;42.660;23.342;2023-03-23T07:54:31;94883.66;;;13.32;92.44
8049;BME280;20935;42.660;23.342;2023-03-23T07:57:17;94888.53;;;13.41;90.79
8049;BME280;20935;42.660;23.342;2023-03-23T08:00:03;94887.97;;;13.53;89.19
8049;BME280;20935;42.660;23.342;2023-03-23T08:02:58;94886.91;;;12.90;89.35
8049;BME280;20935;42.660;23.342;2023-03-23T08:05:44;94890.72;;;13.46;87.64
8049;BME280;20935;42.660;23.342;2023-03-23T08:08:31;94886.50;;;13.72;85.08
8049;BME280;20935;42.660;23.342;2023-03-23T08:11:17;94896.44;;;14.21;82.02
8049;BME280;20935;42.660;23.342;2023-03-23T08:14:02;94893.31;;;14.23;82.49
8049;BME280;20935;42.660;23.342;2023-03-23T08:16:48;94895.41;;;13.69;83.68
8049;BME280;20935;42.660;23.342;2023-03-23T08:19:34;94897.44;;;14.07;79.42
8049;BME280;20935;42.660;23.342;2023-03-23T08:22:20;94898.31;;;14.01;80.81
8049;BME280;20935;42.660;23.342;2023-03-23T08:25:09;94898.53;;;13.87;82.86
8049;BME280;20935;42.660;23.342;2023-03-23T08:27:56;94904.41;;;14.05;81.45
8049;BME280;20935;42.660;23.342;2023-03-23T08:30:41;94894.19;;;14.39;78.14
8049;BME280;20935;42.660;23.342;2023-03-23T08:33:27;94897.03;;;13.36;81.46
8049;BME280;20935;42.660;23.342;2023-03-23T08:36:13;94894.97;;;13.70;78.27
8049;BME280;20935;42.660;23.342;2023-03-23T08:38:59;94898.19;;;14.51;74.19
8049;BME280;20935;42.660;23.342;2023-03-23T08:41:46;94892.16;;;14.24;72.87
8049;BME280;20935;42.660;23.342;2023-03-23T08:44:31;94891.72;;;14.68;70.51
8049;BME280;20935;42.660;23.342;2023-03-23T08:47:17;94895.03;;;15.47;63.49
8049;BME280;20935;42.660;23.342;2023-03-23T08:50:05;94894.69;;;15.10;60.81
8049;BME280;20935;42.660;23.342;2023-03-23T08:52:52;94898.97;;;15.27;59.39
8049;BME280;20935;42.660;23.342;2023-03-23T08:55:38;94893.03;;;15.68;56.23
8049;BME280;20935;42.660;23.342;2023-03-23T08:58:26;94887.03;;;15.08;55.53
8049;BME280;20935;42.660;23.342;2023-03-23T09:01:12;94892.97;;;15.71;55.93
8049;BME280;20935;42.660;23.342;2023-03-23T09:03:58;94890.81;;;15.11;54.77
8049;BME280;20935;42.660;23.342;2023-03-23T09:06:44;94895.16;;;14.88;55.94
8049;BME280;20935;42.660;23.342;2023-03-23T09:09:29;94893.44;;;14.58;56.27
8049;BME280;20935;42.660;23.342;2023-03-23T09:12:18;94893.59;;;15.07;55.86
8049;BME280;20935;42.660;23.342;2023-03-23T09:15:06;94884.09;;;15.19;55.78
8049;BME280;20935;42.660;23.342;2023-03-23T09:17:54;94883.53;;;14.32;57.67
8049;BME280;20935;42.660;23.342;2023-03-23T09:20:40;94891.31;;;14.27;59.00
8049;BME280;20935;42.660;23.342;2023-03-23T09:23:26;94882.72;;;14.35;57.25
8049;BME280;20935;42.660;23.342;2023-03-23T09:26:12;94879.81;;;14.46;58.06
8049;BME280;20935;42.660;23.342;2023-03-23T09:28:58;94878.94;;;14.72;56.55
8049;BME280;20935;42.660;23.342;2023-03-23T09:31:45;94886.56;;;14.93;55.40
8049;BME280;20935;42.660;23.342;2023-03-23T09:34:32;94878.34;;;15.00;55.66
8049;BME280;20935;42.660;23.342;2023-03-23T09:37:19;94873.63;;;14.49;58.95
8049;BME280;20935;42.660;23.342;2023-03-23T09:40:09;94881.53;;;14.95;56.22
8049;BME280;20935;42.660;23.342;2023-03-23T09:43:17;94870.53;;;15.22;55.71
8049;BME280;20935;42.660;23.342;2023-03-23T09:46:17;94872.63;;;15.67;54.75
8049;BME280;20935;42.660;23.342;2023-03-23T09:49:11;94867.63;;;15.13;56.78
8049;BME280;20935;42.660;23.342;2023-03-23T09:52:01;94865.44;;;16.21;54.65
8049;BME280;20935;42.660;23.342;2023-03-23T09:54:49;94864.38;;;15.22;57.09
8049;BME280;20935;42.660;23.342;2023-03-23T09:57:40;94864.69;;;15.76;54.73
8049;BME280;20935;42.660;23.342;2023-03-23T10:00:31;94859.88;;;15.83;53.59
8049;BME280;20935;42.660;23.342;2023-03-23T10:03:20;94862.28;;;15.94;54.09
8049;BME280;20935;42.660;23.342;2023-03-23T10:06:10;94858.38;;;14.78;53.40
8049;BME280;20935;42.660;23.342;2023-03-23T10:08:58;94861.00;;;14.62;54.52
8049;BME280;20935;42.660;23.342;2023-03-23T10:11:56;94865.75;;;14.94;53.13
8049;BME280;20935;42.660;23.342;2023-03-23T10:14:56;94855.00;;;15.10;53.23
8049;BME280;20935;42.660;23.342;2023-03-23T10:17:51;94853.97;;;15.72;53.18
8049;BME280;20935;42.660;23.342;2023-03-23T10:20:43;94861.78;;;15.99;52.61
8049;BME280;20935;42.660;23.342;2023-03-23T10:23:42;94852.19;;;15.82;53.26
8049;BME280;20935;42.660;23.342;2023-03-23T10:26:39;94846.78;;;16.27;51.66
8049;BME280;20935;42.660;23.342;2023-03-23T10:29:28;94850.97;;;15.34;53.25
8049;BME280;20935;42.660;23.342;2023-03-23T10:32:17;94850.66;;;15.32;53.02
8049;BME280;20935;42.660;23.342;2023-03-23T10:35:07;94845.25;;;15.65;52.53
8049;BME280;20935;42.660;23.342;2023-03-23T10:38:00;94842.06;;;16.60;50.54
8049;BME280;20935;42.660;23.342;2023-03-23T10:40:52;94835.81;;;16.47;51.43
8049;BME280;20935;42.660;23.342;2023-03-23T10:43:39;94840.50;;;16.30;51.44
8049;BME280;20935;42.660;23.342;2023-03-23T10:46:33;94850.44;;;15.59;51.98
8049;BME280;20935;42.660;23.342;2023-03-23T10:49:24;94838.97;;;15.55;51.13
8049;BME280;20935;42.660;23.342;2023-03-23T10:52:25;94849.81;;;16.29;50.15
8049;BME280;20935;42.660;23.342;2023-03-23T10:55:14;94837.78;;;16.87;49.37
8049;BME280;20935;42.660;23.342;2023-03-23T10:58:03;94836.38;;;16.25;49.75
8049;BME280;20935;42.660;23.342;2023-03-23T11:00:49;94838.91;;;16.04;50.08
8049;BME280;20935;42.660;23.342;2023-03-23T11:03:40;94838.09;;;15.58;52.93
8049;BME280;20935;42.660;23.342;2023-03-23T11:06:30;94836.81;;;15.30;52.72
8049;BME280;20935;42.660;23.342;2023-03-23T11:09:19;94834.53;;;15.13;52.57
8049;BME280;20935;42.660;23.342;2023-03-23T11:12:16;94829.47;;;15.47;51.93
8049;BME280;20935;42.660;23.342;2023-03-23T11:15:23;94834.69;;;16.03;51.23
8049;BME280;20935;42.660;23.342;2023-03-23T11:18:13;94830.47;;;15.85;51.22
8049;BME280;20935;42.660;23.342;2023-03-23T11:21:05;94827.41;;;15.55;51.25
8049;BME280;20935;42.660;23.342;2023-03-23T11:23:54;94821.09;;;15.25;51.95
8049;BME280;20935;42.660;23.342;2023-03-23T11:26:43;94809.00;;;16.11;50.17
8049;BME280;20935;42.660;23.342;2023-03-23T11:29:30;94808.09;;;15.85;50.76
8049;BME280;20935;42.660;23.342;2023-03-23T11:32:18;94805.78;;;15.38;51.99
8049;BME280;20935;42.660;23.342;2023-03-23T11:35:16;94794.41;;;16.50;50.13
8049;BME280;20935;42.660;23.342;2023-03-23T11:38:02;94803.94;;;15.35;51.97
8049;BME280;20935;42.660;23.342;2023-03-23T11:40:51;94802.91;;;15.78;50.71
8049;BME280;20935;42.660;23.342;2023-03-23T11:43:40;94801.59;;;16.27;49.77
8049;BME280;20935;42.660;23.342;2023-03-23T11:46:34;94789.28;;;16.39;49.42
8049;BME280;20935;42.660;23.342;2023-03-23T11:49:29;94788.69;;;16.60;49.10
8049;BME280;20935;42.660;23.342;2023-03-23T11:52:23;94782.13;;;16.74;48.43
8049;BME280;20935;42.660;23.342;2023-03-23T11:55:14;94787.63;;;17.33;46.94
8049;BME280;20935;42.660;23.342;2023-03-23T11:58:11;94778.34;;;16.59;48.80
8049;BME280;20935;42.660;23.342;2023-03-23T12:01:05;94777.06;;;17.01;49.04
8049;BME280;20935;42.660;23.342;2023-03-23T12:04:00;94768.94;;;16.88;49.12
8049;BME280;20935;42.660;23.342;2023-03-23T12:06:54;94766.06;;;16.13;49.73
8049;BME280;20935;42.660;23.342;2023-03-23T12:09:51;94768.41;;;16.27;50.37
8049;BME280;20935;42.660;23.342;2023-03-23T12:12:44;94758.69;;;16.42;49.43
8049;BME280;20935;42.660;23.342;2023-03-23T12:15:34;94767.75;;;17.15;49.88
8049;BME280;20935;42.660;23.342;2023-03-23T12:18:32;94761.06;;;16.27;49.49
8049;BME280;20935;42.660;23.342;2023-03-23T12:21:24;94758.88;;;16.64;48.99
8049;BME280;20935;42.660;23.342;2023-03-23T12:24:24;94757.16;;;16.95;48.88
8049;BME280;20935;42.660;23.342;2023-03-23T12:27:18;94762.47;;;16.44;49.46
8049;BME280;20935;42.660;23.342;2023-03-23T12:30:20;94762.88;;;16.72;48.82
8049;BME280;20935;42.660;23.342;2023-03-23T12:33:23;94754.66;;;16.75;48.25
8049;BME280;20935;42.660;23.342;2023-03-23T12:36:19;94757.81;;;16.99;47.48
8049;BME280;20935;42.660;23.342;2023-03-23T12:42:45;94754.88;;;16.94;48.13
8049;BME280;20935;42.660;23.342;2023-03-23T12:45:55;94752.03;;;17.22;48.46
8049;BME280;20935;42.660;23.342;2023-03-23T12:48:42;94756.81;;;16.93;48.25
8049;BME280;20935;42.660;23.342;2023-03-23T12:51:32;94753.69;;;16.82;48.16
8049;BME280;20935;42.660;23.342;2023-03-23T12:54:24;94741.00;;;16.66;48.33
8049;BME280;20935;42.660;23.342;2023-03-23T12:57:15;94745.34;;;16.76;49.02
8049;BME280;20935;42.660;23.342;2023-03-23T13:00:06;94744.69;;;17.10;48.46
8049;BME280;20935;42.660;23.342;2023-03-23T13:03:02;94741.69;;;16.83;48.54
8049;BME280;20935;42.660;23.342;2023-03-23T13:05:52;94737.03;;;16.71;48.83
8049;BME280;20935;42.660;23.342;2023-03-23T13:08:55;94732.16;;;17.04;48.29
8049;BME280;20935;42.660;23.342;2023-03-23T13:11:45;94732.97;;;17.26;47.99
8049;BME280;20935;42.660;23.342;2023-03-23T13:14:41;94725.97;;;16.78;48.77
8049;BME280;20935;42.660;23.342;2023-03-23T13:17:37;94728.69;;;16.11;50.16
8049;BME280;20935;42.660;23.342;2023-03-23T13:20:36;94728.06;;;16.32;49.53
8049;BME280;20935;42.660;23.342;2023-03-23T13:23:24;94724.09;;;15.95;50.29
8049;BME280;20935;42.660;23.342;2023-03-23T13:26:13;94722.41;;;16.14;50.48
8049;BME280;20935;42.660;23.342;2023-03-23T13:29:05;94721.34;;;16.24;50.64
8049;BME280;20935;42.660;23.342;2023-03-23T13:31:52;94713.88;;;16.03;51.08
8049;BME280;20935;42.660;23.342;2023-03-23T13:34:49;94714.88;;;16.34;50.96
8049;BME280;20935;42.660;23.342;2023-03-23T13:37:41;94709.81;;;16.49;50.46
8049;BME280;20935;42.660;23.342;2023-03-23T13:40:30;94709.38;;;16.38;50.88
8049;BME280;20935;42.660;23.342;2023-03-23T13:43:26;94711.06;;;16.07;50.78
8049;BME280;20935;42.660;23.342;2023-03-23T13:46:25;94709.53;;;16.60;50.35
8049;BME280;20935;42.660;23.342;2023-03-23T13:49:19;94702.91;;;16.48;50.74
8049;BME280;20935;42.660;23.342;2023-03-23T13:52:16;94706.16;;;16.56;50.30
8049;BME280;20935;42.660;23.342;2023-03-23T13:55:22;94703.00;;;16.44;50.20
8049;BME280;20935;42.660;23.342;2023-03-23T13:58:23;94693.38;;;15.89;51.53
8049;BME280;20935;42.660;23.342;2023-03-23T14:01:14;94704.59;;;16.29;51.16
8049;BME280;20935;42.660;23.342;2023-03-23T14:04:04;94699.09;;;16.45;50.21
8049;BME280;20935;42.660;23.342;2023-03-23T14:06:51;94695.34;;;16.43;50.84
8049;BME280;20935;42.660;23.342;2023-03-23T14:09:39;94704.09;;;15.93;50.62
8049;BME280;20935;42.660;23.342;2023-03-23T14:12:27;94686.69;;;16.35;50.23
8049;BME280;20935;42.660;23.342;2023-03-23T14:15:14;94686.88;;;16.41;49.95
8049;BME280;20935;42.660;23.342;2023-03-23T14:18:03;94686.81;;;16.70;50.77
8049;BME280;20935;42.660;23.342;2023-03-23T14:20:50;94683.16;;;16.64;50.01
8049;BME280;20935;42.660;23.342;2023-03-23T14:23:35;94682.56;;;16.43;49.89
8049;BME280;20935;42.660;23.342;2023-03-23T14:26:21;94675.75;;;16.77;49.85
8049;BME280;20935;42.660;23.342;2023-03-23T14:29:10;94677.50;;;16.58;50.55
8049;BME280;20935;42.660;23.342;2023-03-23T14:31:57;94679.69;;;16.76;51.02
8049;BME280;20935;42.660;23.342;2023-03-23T14:34:47;94674.78;;;16.45;50.32
8049;BME280;20935;42.660;23.342;2023-03-23T14:37:34;94673.94;;;16.74;50.90
8049;BME280;20935;42.660;23.342;2023-03-23T14:40:20;94677.81;;;16.85;50.24
8049;BME280;20935;42.660;23.342;2023-03-23T14:43:07;94683.22;;;16.98;49.93
8049;BME280;20935;42.660;23.342;2023-03-23T14:45:56;94682.75;;;17.12;50.08
8049;BME280;20935;42.660;23.342;2023-03-23T14:48:44;94682.56;;;17.07;49.93
8049;BME280;20935;42.660;23.342;2023-03-23T14:51:31;94682.47;;;16.85;50.37
8049;BME280;20935;42.660;23.342;2023-03-23T14:54:22;94683.78;;;16.80;50.06
8049;BME280;20935;42.660;23.342;2023-03-23T14:57:12;94676.81;;;17.05;49.90
8049;BME280;20935;42.660;23.342;2023-03-23T14:59:58;94680.16;;;17.09;49.87
8049;BME280;20935;42.660;23.342;2023-03-23T15:02:47;94670.34;;;17.02;49.71